createdAt,value
2023-02-23T00:02:08.512Z,1.58
2023-02-23T00:04:36.656Z,1.17
2023-02-23T00:07:06.464Z,1.20
2023-02-23T00:09:36.815Z,1.33
2023-02-23T00:12:09.756Z,1.63
2023-02-23T00:14:38.290Z,1.55
2023-02-23T00:17:14.693Z,1.10
2023-02-23T00:19:46.190Z,1.40
2023-02-23T00:22:13.837Z,1.42
2023-02-23T00:24:42.892Z,1.30
2023-02-23T00:27:12.812Z,1.50
2023-02-23T00:29:40.814Z,1.30
2023-02-23T00:32:08.889Z,1.00
2023-02-23T00:37:05.396Z,1.30
2023-02-23T00:39:33.405Z,1.35
2023-02-23T00:42:03.608Z,1.50
2023-02-23T00:44:33.949Z,1.20
2023-02-23T00:47:02.157Z,1.30
2023-02-23T00:49:29.796Z,1.52
2023-02-23T00:51:57.740Z,1.20
2023-02-23T00:54:25.648Z,2.28
2023-02-23T00:59:20.950Z,1.63
2023-02-23T01:01:49.332Z,1.50
2023-02-23T01:04:20.753Z,1.77
2023-02-23T01:06:48.730Z,1.77
2023-02-23T01:09:27.951Z,1.35
2023-02-23T01:11:57.229Z,1.27
2023-02-23T01:14:25.449Z,1.45
2023-02-23T01:16:53.076Z,1.33
2023-02-23T01:19:21.248Z,1.15
2023-02-23T01:21:49.834Z,1.77
2023-02-23T01:24:18.421Z,1.38
2023-02-23T01:26:46.847Z,1.27
2023-02-23T01:29:18.597Z,1.50
2023-02-23T01:31:48.335Z,1.58
2023-02-23T01:34:21.781Z,1.00
2023-02-23T01:36:49.546Z,1.90
2023-02-23T01:39:19.639Z,1.55
2023-02-23T01:41:47.852Z,1.70
2023-02-23T01:44:15.785Z,1.40
2023-02-23T01:46:45.829Z,1.73
2023-02-23T01:49:20.290Z,1.40
2023-02-23T01:52:02.669Z,1.10
2023-02-23T01:54:41.995Z,1.42
2023-02-23T01:57:14.642Z,0.80
2023-02-23T01:59:45.203Z,1.60
2023-02-23T02:02:14.546Z,1.48
2023-02-23T02:04:46.659Z,1.75
2023-02-23T02:07:19.295Z,1.13
2023-02-23T02:10:26.446Z,1.60
2023-02-23T02:12:56.300Z,1.35
2023-02-23T02:15:30.287Z,1.60
2023-02-23T02:18:23.539Z,1.38
2023-02-23T02:21:29.366Z,2.00
2023-02-23T02:24:22.587Z,2.42
2023-02-23T02:27:00.690Z,1.42
2023-02-23T02:32:17.956Z,1.58
2023-02-23T02:35:19.912Z,1.33
2023-02-23T02:38:12.578Z,1.48
2023-02-23T02:40:53.522Z,1.85
2023-02-23T02:43:58.250Z,1.38
2023-02-23T02:46:28.650Z,1.58
2023-02-23T02:49:02.143Z,1.75
2023-02-23T02:51:53.824Z,1.33
2023-02-23T02:54:21.333Z,1.05
2023-02-23T02:56:50.643Z,0.88
2023-02-23T02:59:39.102Z,1.30
2023-02-23T03:02:26.250Z,1.70
2023-02-23T03:05:12.907Z,1.23
2023-02-23T03:08:12.378Z,1.20
2023-02-23T03:11:16.332Z,1.52
2023-02-23T03:14:24.250Z,1.13
2023-02-23T03:17:10.574Z,1.17
2023-02-23T03:20:25.841Z,1.77
2023-02-23T03:23:44.614Z,1.27
2023-02-23T03:26:37.844Z,1.55
2023-02-23T03:29:52.209Z,0.82
2023-02-23T03:33:01.836Z,1.35
2023-02-23T03:36:08.460Z,0.80
2023-02-23T03:39:24.717Z,1.27
2023-02-23T03:42:14.382Z,1.42
2023-02-23T03:45:05.907Z,0.82
2023-02-23T03:47:57.160Z,1.02
2023-02-23T03:50:47.947Z,1.05
2023-02-23T03:53:39.358Z,0.65
2023-02-23T03:56:28.410Z,0.60
2023-02-23T03:59:20.095Z,0.93
2023-02-23T04:02:09.794Z,1.70
2023-02-23T04:04:56.764Z,0.90
2023-02-23T04:07:43.500Z,1.13
2023-02-23T04:10:30.046Z,1.00
2023-02-23T04:13:16.372Z,0.52
2023-02-23T04:15:54.979Z,0.88
2023-02-23T04:18:26.315Z,0.85
2023-02-23T04:20:55.761Z,0.90
2023-02-23T04:23:24.465Z,1.20
2023-02-23T04:25:54.291Z,0.70
2023-02-23T04:28:24.137Z,1.00
2023-02-23T04:30:53.930Z,0.55
2023-02-23T04:33:22.382Z,1.75
2023-02-23T04:35:51.961Z,0.93
2023-02-23T04:38:20.043Z,0.98
2023-02-23T04:43:15.780Z,0.75
2023-02-23T04:45:44.663Z,0.70
2023-02-23T04:48:12.278Z,1.00
2023-02-23T04:50:40.059Z,1.17
2023-02-23T04:53:07.924Z,0.75
2023-02-23T04:55:37.160Z,1.40
2023-02-23T04:58:04.825Z,0.93
2023-02-23T05:00:34.095Z,0.77
2023-02-23T05:03:05.285Z,0.82
2023-02-23T05:05:33.052Z,1.33
2023-02-23T05:08:01.130Z,1.27
2023-02-23T05:12:57.519Z,1.52
2023-02-23T05:15:25.105Z,1.25
2023-02-23T05:17:54.034Z,2.33
2023-02-23T05:20:22.076Z,1.88
2023-02-23T05:22:49.670Z,1.75
2023-02-23T05:25:17.621Z,1.80
2023-02-23T05:27:45.072Z,1.38
2023-02-23T05:30:13.476Z,1.63
2023-02-23T05:32:41.212Z,1.33
2023-02-23T05:35:10.499Z,1.70
2023-02-23T05:37:38.119Z,2.00
2023-02-23T05:40:06.250Z,1.65
2023-02-23T05:45:01.532Z,2.58
2023-02-23T05:47:29.129Z,1.80
2023-02-23T05:49:57.018Z,1.58
2023-02-23T05:52:25.090Z,0.98
2023-02-23T05:57:20.023Z,2.53
2023-02-23T05:59:47.540Z,2.47
2023-02-23T06:02:15.166Z,1.73
2023-02-23T06:04:43.089Z,1.15
2023-02-23T06:07:10.643Z,1.55
2023-02-23T06:09:38.410Z,2.13
2023-02-23T06:12:06.280Z,1.83
2023-02-23T06:14:35.511Z,1.50
2023-02-23T06:17:03.422Z,1.52
2023-02-23T06:19:31.690Z,1.90
2023-02-23T06:21:59.281Z,1.23
2023-02-23T06:24:26.910Z,1.33
2023-02-23T06:26:54.975Z,2.20
2023-02-23T06:29:23.107Z,1.73
2023-02-23T06:34:19.033Z,1.95
2023-02-23T06:36:46.923Z,1.88
2023-02-23T06:39:14.444Z,3.08
2023-02-23T06:41:42.233Z,2.17
2023-02-23T06:44:10.364Z,2.08
2023-02-23T06:49:05.613Z,1.05
2023-02-23T06:51:33.477Z,1.35
2023-02-23T06:54:00.973Z,2.63
2023-02-23T06:56:28.844Z,2.10
2023-02-23T06:58:56.349Z,2.42
2023-02-23T07:01:24.235Z,1.40
2023-02-23T07:03:51.971Z,1.48
2023-02-23T07:06:19.553Z,1.38
2023-02-23T07:08:47.196Z,1.58
2023-02-23T07:11:16.087Z,1.38
2023-02-23T07:13:43.858Z,1.25
2023-02-23T07:16:12.294Z,1.20
2023-02-23T07:18:39.871Z,1.20
2023-02-23T07:21:07.993Z,1.20
2023-02-23T07:26:03.267Z,0.88
2023-02-23T07:28:30.971Z,1.42
2023-02-23T07:30:59.215Z,1.17
2023-02-23T07:33:27.381Z,2.70
2023-02-23T07:35:54.894Z,1.05
2023-02-23T07:38:22.468Z,1.90
2023-02-23T07:40:51.355Z,1.40
2023-02-23T07:43:22.028Z,1.77
2023-02-23T07:45:51.198Z,1.80
2023-02-23T07:48:19.108Z,1.02
2023-02-23T07:50:46.993Z,1.58
2023-02-23T07:53:15.224Z,0.85
2023-02-23T07:55:42.968Z,1.50
2023-02-23T07:58:10.567Z,1.42
2023-02-23T08:00:40.277Z,1.35
2023-02-23T08:03:08.263Z,1.92
2023-02-23T08:05:36.790Z,1.63
2023-02-23T08:08:04.588Z,1.17
2023-02-23T08:10:32.590Z,1.23
2023-02-23T08:15:28.276Z,1.23
2023-02-23T08:17:56.247Z,1.88
2023-02-23T08:20:24.643Z,1.77
2023-02-23T08:22:56.042Z,1.90
2023-02-23T08:25:24.116Z,1.67
2023-02-23T08:27:52.784Z,1.83
2023-02-23T08:30:24.554Z,1.90
2023-02-23T08:32:52.377Z,1.98
2023-02-23T08:35:20.332Z,1.55
2023-02-23T08:40:15.901Z,2.03
2023-02-23T08:45:13.673Z,2.17
2023-02-23T08:47:41.701Z,2.63
2023-02-23T08:52:39.587Z,1.35
2023-02-23T08:55:08.392Z,2.17
2023-02-23T08:57:36.355Z,2.05
2023-02-23T09:00:14.132Z,1.70
2023-02-23T09:02:42.879Z,2.47
2023-02-23T09:05:10.789Z,1.70
2023-02-23T09:10:07.952Z,1.55
2023-02-23T09:12:35.566Z,0.77
2023-02-23T09:15:03.456Z,1.67
2023-02-23T09:17:31.116Z,1.17
2023-02-23T09:19:58.691Z,1.00
2023-02-23T09:22:26.738Z,2.05
2023-02-23T09:24:54.244Z,2.00
2023-02-23T09:27:21.852Z,1.30
2023-02-23T09:29:49.687Z,1.00
2023-02-23T09:32:17.636Z,1.95
2023-02-23T09:34:45.890Z,1.95
2023-02-23T09:37:13.742Z,1.40
2023-02-23T09:39:41.316Z,2.10
2023-02-23T09:42:36.763Z,2.03
2023-02-23T09:45:25.889Z,2.13
2023-02-23T09:48:09.602Z,1.42
2023-02-23T09:50:39.634Z,1.90
2023-02-23T09:53:16.353Z,2.17
2023-02-23T09:55:45.177Z,1.40
2023-02-23T09:58:23.902Z,1.80
2023-02-23T10:01:11.279Z,2.35
2023-02-23T10:03:48.980Z,0.88
2023-02-23T10:06:18.802Z,2.17
2023-02-23T10:08:46.865Z,1.50
2023-02-23T10:11:29.835Z,1.80
2023-02-23T10:14:08.297Z,2.10
2023-02-23T10:16:43.200Z,1.25
2023-02-23T10:19:20.712Z,1.48
2023-02-23T10:22:02.838Z,1.40
2023-02-23T10:24:43.319Z,1.52
2023-02-23T10:27:19.302Z,2.08
2023-02-23T10:29:51.671Z,1.95
2023-02-23T10:32:36.848Z,1.80
2023-02-23T10:35:15.565Z,1.05
2023-02-23T10:37:43.658Z,3.58
2023-02-23T10:42:47.010Z,1.75
2023-02-23T10:45:22.725Z,1.63
2023-02-23T10:47:57.436Z,1.52
2023-02-23T10:50:29.702Z,1.40
2023-02-23T10:53:18.603Z,2.00
2023-02-23T10:55:48.007Z,1.83
2023-02-23T10:58:20.029Z,1.35
2023-02-23T11:00:52.564Z,2.22
2023-02-23T11:03:43.206Z,1.13
2023-02-23T11:06:30.069Z,1.92
2023-02-23T11:08:58.461Z,1.42
2023-02-23T11:11:28.944Z,1.70
2023-02-23T11:13:57.748Z,1.40
2023-02-23T11:16:30.068Z,1.88
2023-02-23T11:18:58.197Z,1.70
2023-02-23T11:21:34.251Z,1.48
2023-02-23T11:24:30.789Z,1.30
2023-02-23T11:27:07.007Z,1.67
2023-02-23T11:29:36.218Z,1.58
2023-02-23T11:32:10.735Z,1.65
2023-02-23T11:34:43.648Z,1.67
2023-02-23T11:37:26.392Z,1.50
2023-02-23T11:39:59.552Z,1.70
2023-02-23T11:42:36.102Z,1.15
2023-02-23T11:45:20.697Z,0.98
2023-02-23T11:47:54.203Z,1.60
2023-02-23T11:50:28.038Z,1.27
2023-02-23T11:53:04.507Z,1.88
2023-02-23T11:55:33.955Z,2.30
2023-02-23T11:58:22.758Z,1.23
2023-02-23T12:01:12.480Z,0.82
2023-02-23T12:03:55.813Z,1.50
2023-02-23T12:06:30.762Z,1.83
2023-02-23T12:09:02.915Z,1.00
2023-02-23T12:11:37.546Z,1.73
2023-02-23T12:14:50.043Z,1.40
2023-02-23T12:17:28.396Z,1.20
2023-02-23T12:20:11.475Z,0.80
2023-02-23T12:22:43.235Z,1.67
2023-02-23T12:25:36.039Z,1.10
2023-02-23T12:28:21.512Z,1.88
2023-02-23T12:30:55.453Z,1.25
2023-02-23T12:33:32.962Z,1.17
2023-02-23T12:36:09.558Z,1.75
2023-02-23T12:38:48.730Z,1.50
2023-02-23T12:41:45.082Z,0.95
2023-02-23T12:44:42.772Z,0.30
2023-02-23T12:50:14.415Z,1.45
2023-02-23T12:52:53.988Z,1.35
2023-02-23T12:55:58.409Z,1.33
2023-02-23T12:58:47.017Z,1.05
2023-02-23T13:01:50.077Z,0.95
2023-02-23T13:04:26.875Z,1.27
2023-02-23T13:07:05.058Z,0.82
2023-02-23T13:09:38.772Z,1.52
2023-02-23T13:12:06.835Z,1.27
2023-02-23T13:14:58.867Z,1.88
2023-02-23T13:17:36.680Z,1.58
2023-02-23T13:20:04.653Z,1.88
2023-02-23T13:22:46.262Z,0.57
2023-02-23T13:25:36.976Z,1.10
2023-02-23T13:28:10.255Z,0.47
2023-02-23T13:30:42.425Z,0.70
2023-02-23T13:33:32.203Z,0.70
2023-02-23T13:36:06.409Z,1.23
2023-02-23T13:41:42.109Z,1.08
2023-02-23T13:44:42.199Z,1.50
2023-02-23T13:47:14.317Z,0.70
2023-02-23T13:50:04.921Z,1.00
2023-02-23T13:52:40.033Z,1.45
2023-02-23T13:55:26.207Z,1.42
2023-02-23T13:57:57.568Z,0.80
2023-02-23T14:00:25.525Z,1.02
2023-02-23T14:02:53.737Z,0.85
2023-02-23T14:05:31.734Z,0.52
2023-02-23T14:10:43.926Z,1.20
2023-02-23T14:13:15.659Z,0.70
2023-02-23T14:15:48.435Z,0.75
2023-02-23T14:18:19.096Z,1.15
2023-02-23T14:21:21.911Z,0.80
2023-02-23T14:24:21.619Z,1.73
2023-02-23T14:27:04.876Z,1.00
2023-02-23T14:29:40.632Z,1.38
2023-02-23T14:32:11.480Z,0.73
2023-02-23T14:34:50.533Z,1.00
2023-02-23T14:37:37.191Z,1.67
2023-02-23T14:40:37.741Z,1.50
2023-02-23T14:43:31.809Z,1.50
2023-02-23T14:46:06.000Z,0.80
2023-02-23T14:48:36.651Z,1.30
2023-02-23T14:51:42.690Z,1.58
2023-02-23T14:54:32.071Z,0.52
2023-02-23T14:57:02.078Z,1.60
2023-02-23T14:59:40.649Z,1.35
2023-02-23T15:02:20.580Z,0.80
2023-02-23T15:04:48.239Z,0.82
2023-02-23T15:07:28.097Z,1.08
2023-02-23T15:09:58.709Z,1.02
2023-02-23T15:12:35.891Z,0.93
2023-02-23T15:15:10.179Z,0.90
2023-02-23T15:17:47.860Z,0.65
2023-02-23T15:20:18.758Z,1.30
2023-02-23T15:22:51.669Z,1.25
2023-02-23T15:25:23.898Z,0.88
2023-02-23T15:27:52.016Z,0.95
2023-02-23T15:30:20.095Z,1.13
2023-02-23T15:32:48.475Z,0.93
2023-02-23T15:35:16.198Z,1.15
2023-02-23T15:37:52.776Z,0.73
2023-02-23T15:40:30.168Z,0.88
2023-02-23T15:43:01.692Z,0.55
2023-02-23T15:45:40.368Z,1.30
2023-02-23T15:48:17.291Z,0.80
2023-02-23T15:50:50.776Z,1.02
2023-02-23T15:53:38.879Z,0.90
2023-02-23T15:56:23.566Z,0.70
2023-02-23T15:58:56.943Z,1.20
2023-02-23T16:01:30.447Z,1.40
2023-02-23T16:04:12.252Z,1.52
2023-02-23T16:06:53.901Z,1.75
2023-02-23T16:09:22.305Z,1.15
2023-02-23T16:11:55.857Z,1.23
2023-02-23T16:14:25.293Z,0.90
2023-02-23T16:17:09.882Z,0.63
2023-02-23T16:19:41.594Z,0.85
2023-02-23T16:22:20.331Z,1.13
2023-02-23T16:24:57.837Z,0.82
2023-02-23T16:27:27.300Z,1.23
2023-02-23T16:30:16.984Z,1.00
2023-02-23T16:32:46.166Z,0.90
2023-02-23T16:35:19.578Z,1.38
2023-02-23T16:38:01.494Z,0.68
2023-02-23T16:40:30.542Z,1.40
2023-02-23T16:42:59.623Z,1.25
2023-02-23T16:45:29.663Z,0.63
2023-02-23T16:48:02.355Z,0.90
2023-02-23T16:50:30.963Z,0.90
2023-02-23T16:52:58.736Z,1.20
2023-02-23T16:55:28.700Z,0.80
2023-02-23T16:58:02.650Z,1.20
2023-02-23T17:00:32.702Z,1.40
2023-02-23T17:03:01.067Z,1.38
2023-02-23T17:05:30.193Z,1.63
2023-02-23T17:07:59.342Z,1.10
2023-02-23T17:10:31.902Z,1.55
2023-02-23T17:13:08.808Z,0.98
2023-02-23T17:15:39.401Z,1.40
2023-02-23T17:18:07.032Z,1.00
2023-02-23T17:20:34.894Z,1.27
2023-02-23T17:23:03.418Z,1.15
2023-02-23T17:25:37.957Z,1.48
2023-02-23T17:28:10.652Z,1.42
2023-02-23T17:33:07.912Z,1.55
2023-02-23T17:35:37.899Z,1.70
2023-02-23T17:38:07.261Z,1.52
2023-02-23T17:40:36.461Z,1.77
2023-02-23T17:43:07.645Z,1.83
2023-02-23T17:45:35.781Z,1.58
2023-02-23T17:48:04.496Z,1.27
2023-02-23T17:50:32.129Z,2.53
2023-02-23T17:53:00.644Z,2.15
2023-02-23T17:55:28.354Z,2.60
2023-02-23T17:57:56.368Z,1.83
2023-02-23T18:00:25.090Z,2.00
2023-02-23T18:02:52.723Z,2.15
2023-02-23T18:05:20.802Z,2.03
2023-02-23T18:07:48.911Z,2.63
2023-02-23T18:10:17.876Z,3.55
2023-02-23T18:12:45.865Z,2.80
2023-02-23T18:15:13.869Z,4.32
2023-02-23T18:17:41.454Z,4.68
2023-02-23T18:20:09.820Z,8.02
2023-02-23T18:22:39.392Z,7.85
2023-02-23T18:25:07.474Z,8.27
2023-02-23T18:27:35.649Z,7.43
2023-02-23T18:30:03.903Z,7.05
2023-02-23T18:32:31.682Z,7.05
2023-02-23T18:35:00.371Z,7.30
2023-02-23T18:37:29.769Z,4.35
2023-02-23T18:39:59.313Z,5.68
2023-02-23T18:42:28.679Z,4.30
2023-02-23T18:44:56.546Z,3.78
2023-02-23T18:47:24.412Z,4.35
2023-02-23T18:49:53.115Z,3.20
2023-02-23T18:52:21.624Z,3.53
2023-02-23T18:54:49.632Z,3.33
2023-02-23T18:57:17.044Z,2.13
2023-02-23T18:59:46.820Z,3.17
2023-02-23T19:02:15.378Z,3.30
2023-02-23T19:04:43.971Z,3.08
2023-02-23T19:07:14.678Z,3.28
2023-02-23T19:09:44.055Z,3.53
2023-02-23T19:12:11.891Z,4.63
2023-02-23T19:14:49.222Z,5.40
2023-02-23T19:17:17.964Z,4.40
2023-02-23T19:19:45.796Z,4.03
2023-02-23T19:22:13.682Z,4.28
2023-02-23T19:24:45.609Z,3.85
2023-02-23T19:27:13.224Z,4.22
2023-02-23T19:29:41.109Z,4.45
2023-02-23T19:32:09.671Z,4.68
2023-02-23T19:34:39.907Z,4.95
2023-02-23T19:37:09.068Z,4.80
2023-02-23T19:39:37.015Z,4.30
2023-02-23T19:42:05.172Z,4.50
2023-02-23T19:44:38.937Z,4.63
2023-02-23T19:47:06.608Z,4.07
2023-02-23T19:49:35.525Z,4.70
2023-02-23T19:52:03.716Z,4.68
2023-02-23T19:54:34.097Z,4.68
2023-02-23T19:57:05.184Z,2.38
2023-02-23T19:59:33.335Z,2.55
2023-02-23T20:02:00.955Z,2.80
2023-02-23T20:04:29.662Z,2.23
2023-02-23T20:06:57.232Z,3.70
2023-02-23T20:09:24.829Z,3.45
2023-02-23T20:11:52.492Z,4.60
2023-02-23T20:14:21.465Z,4.05
2023-02-23T20:16:49.154Z,3.25
2023-02-23T20:19:19.682Z,4.88
2023-02-23T20:21:49.646Z,4.43
2023-02-23T20:24:18.495Z,4.43
2023-02-23T20:26:46.723Z,5.50
2023-02-23T20:31:51.320Z,5.75
2023-02-23T20:34:24.120Z,6.00
2023-02-23T20:36:54.016Z,6.60
2023-02-23T20:39:26.877Z,6.72
2023-02-23T20:41:54.698Z,7.38
2023-02-23T20:44:24.614Z,7.38
2023-02-23T20:46:52.494Z,6.72
2023-02-23T20:49:20.579Z,6.47
2023-02-23T20:51:48.712Z,7.03
2023-02-23T20:54:16.694Z,5.90
2023-02-23T20:59:13.564Z,7.05
2023-02-23T21:01:42.785Z,7.28
2023-02-23T21:04:13.149Z,6.03
2023-02-23T21:06:41.205Z,5.72
2023-02-23T21:09:17.857Z,5.90
2023-02-23T21:11:46.428Z,5.88
2023-02-23T21:14:15.040Z,5.07
2023-02-23T21:16:46.670Z,4.30
2023-02-23T21:19:17.704Z,3.42
2023-02-23T21:21:48.049Z,3.22
2023-02-23T21:24:17.315Z,2.85
2023-02-23T21:26:45.694Z,2.20
2023-02-23T21:29:14.898Z,1.88
2023-02-23T21:31:43.930Z,1.83
2023-02-23T21:34:12.204Z,2.20
2023-02-23T21:39:08.038Z,2.30
2023-02-23T21:41:37.959Z,2.33
2023-02-23T21:44:08.065Z,2.60
2023-02-23T21:46:36.043Z,3.42
2023-02-23T21:49:07.309Z,2.88
2023-02-23T21:51:36.664Z,2.92
2023-02-23T21:54:05.591Z,2.80
2023-02-23T21:56:34.908Z,2.63
2023-02-23T21:59:04.014Z,2.80
2023-02-23T22:01:37.278Z,3.17
2023-02-23T22:04:06.957Z,2.45
2023-02-23T22:06:40.620Z,2.05
2023-02-23T22:09:11.004Z,2.03
2023-02-23T22:11:43.772Z,2.50
2023-02-23T22:14:16.513Z,3.00
2023-02-23T22:16:44.915Z,2.70
2023-02-23T22:21:44.578Z,3.08
2023-02-23T22:24:13.872Z,2.90
2023-02-23T22:26:55.108Z,2.90
2023-02-23T22:29:24.895Z,2.63
2023-02-23T22:31:52.887Z,4.05
2023-02-23T22:36:48.744Z,2.63
2023-02-23T22:39:18.793Z,3.38
2023-02-23T22:41:47.591Z,2.25
2023-02-23T22:44:18.314Z,2.97
2023-02-23T22:46:48.607Z,3.22
2023-02-23T22:49:19.973Z,3.85
2023-02-23T22:51:48.014Z,2.53
2023-02-23T22:54:15.795Z,2.22
2023-02-23T22:56:44.163Z,3.05
2023-02-23T22:59:12.058Z,2.90
2023-02-23T23:01:40.039Z,2.88
2023-02-23T23:04:11.044Z,2.78
2023-02-23T23:06:40.577Z,3.35
2023-02-23T23:09:15.173Z,3.85
2023-02-23T23:11:43.123Z,3.30
2023-02-23T23:14:12.006Z,3.00
2023-02-23T23:16:47.870Z,3.13
2023-02-23T23:19:26.334Z,2.72
2023-02-23T23:21:55.826Z,3.50
2023-02-23T23:24:25.054Z,3.15
2023-02-23T23:26:55.585Z,3.30
2023-02-23T23:29:29.541Z,2.50
2023-02-23T23:31:57.487Z,3.08
2023-02-23T23:36:53.417Z,2.95
2023-02-23T23:41:50.438Z,2.58
2023-02-23T23:44:21.319Z,3.00
2023-02-23T23:46:52.936Z,2.83
2023-02-23T23:49:22.994Z,2.50
2023-02-23T23:51:52.717Z,2.55
2023-02-23T23:54:28.227Z,2.50
2023-02-23T23:56:56.917Z,1.63
2023-02-23T23:59:26.592Z,1.92
